createdAt,value
2023-05-01T00:02:26.099Z,75.60
2023-05-01T00:07:25.992Z,76.46
2023-05-01T00:12:25.892Z,76.01
2023-05-01T00:17:28.866Z,76.36
2023-05-01T00:22:25.755Z,77.64
2023-05-01T00:27:26.397Z,77.78
2023-05-01T00:32:25.624Z,78.33
2023-05-01T00:37:25.623Z,79.51
2023-05-01T00:42:25.531Z,78.61
2023-05-01T00:47:26.080Z,77.98
2023-05-01T00:52:25.404Z,77.22
2023-05-01T00:57:25.375Z,77.64
2023-05-01T01:02:25.254Z,77.88
2023-05-01T01:07:25.255Z,77.88
2023-05-01T01:12:25.146Z,77.12
2023-05-01T01:17:28.203Z,78.30
2023-05-01T01:22:25.025Z,79.47
2023-05-01T01:27:24.983Z,78.44
2023-05-01T01:32:24.849Z,79.64
2023-05-01T01:37:24.960Z,79.47
2023-05-01T01:42:24.744Z,79.58
2023-05-01T01:47:24.734Z,78.54
2023-05-01T01:52:24.632Z,79.16
2023-05-01T01:57:24.655Z,79.02
2023-05-01T02:02:24.469Z,78.09
2023-05-01T02:07:24.394Z,79.71
2023-05-01T02:12:24.349Z,79.82
2023-05-01T02:17:27.569Z,80.16
2023-05-01T02:22:24.229Z,81.30
2023-05-01T02:27:24.176Z,80.23
2023-05-01T02:32:24.082Z,80.40
2023-05-01T02:37:24.019Z,80.09
2023-05-01T02:42:23.911Z,79.88
2023-05-01T02:47:24.019Z,79.33
2023-05-01T02:52:23.808Z,78.05
2023-05-01T02:57:23.789Z,79.27
2023-05-01T03:02:23.712Z,81.30
2023-05-01T03:07:23.737Z,81.56
2023-05-01T03:12:23.613Z,81.10
2023-05-01T03:17:26.536Z,80.68
2023-05-01T03:22:23.421Z,82.28
2023-05-01T03:27:23.382Z,82.53
2023-05-01T03:32:23.372Z,82.94
2023-05-01T03:37:23.283Z,82.53
2023-05-01T03:42:23.158Z,82.42
2023-05-01T03:47:23.237Z,82.07
2023-05-01T03:52:23.217Z,81.10
2023-05-01T03:57:23.815Z,80.89
2023-05-01T04:02:23.020Z,81.72
2023-05-01T04:07:23.038Z,80.51
2023-05-01T04:12:22.908Z,79.02
2023-05-01T04:17:26.195Z,78.47
2023-05-01T04:22:22.765Z,80.61
2023-05-01T04:27:22.681Z,78.47
2023-05-01T04:32:22.567Z,77.36
2023-05-01T04:37:22.517Z,75.91
2023-05-01T04:42:22.384Z,74.63
2023-05-01T04:47:22.601Z,73.68
2023-05-01T04:52:22.251Z,72.27
2023-05-01T04:57:22.216Z,71.75
2023-05-01T05:02:22.148Z,70.79
2023-05-01T05:07:22.367Z,70.00
2023-05-01T05:12:21.995Z,69.04
2023-05-01T05:17:25.107Z,68.16
2023-05-01T05:22:21.875Z,67.07
2023-05-01T05:27:22.044Z,63.69
2023-05-01T05:32:21.871Z,62.81
2023-05-01T05:37:21.711Z,61.29
2023-05-01T05:42:21.681Z,60.75
2023-05-01T05:47:21.667Z,57.19
2023-05-01T05:52:21.480Z,57.81
2023-05-01T05:57:21.472Z,55.28
2023-05-01T06:02:21.552Z,50.96
2023-05-01T06:07:21.950Z,50.23
2023-05-01T06:12:21.219Z,49.44
2023-05-01T06:17:24.170Z,48.54
2023-05-01T06:22:21.114Z,48.25
2023-05-01T06:27:21.090Z,47.70
2023-05-01T06:32:20.989Z,48.91
2023-05-01T06:37:21.072Z,46.09
2023-05-01T06:42:20.827Z,45.59
2023-05-01T06:47:21.002Z,43.66
2023-05-01T06:52:20.755Z,44.07
2023-05-01T06:57:20.665Z,43.48
2023-05-01T07:02:20.758Z,43.32
2023-05-01T07:07:20.671Z,42.92
2023-05-01T07:12:20.460Z,42.50
2023-05-01T07:17:23.587Z,43.65
2023-05-01T07:22:20.460Z,44.37
2023-05-01T07:27:20.290Z,45.77
2023-05-01T07:32:20.228Z,45.32
2023-05-01T07:37:20.143Z,44.39
2023-05-01T07:42:20.027Z,46.36
2023-05-01T07:47:20.719Z,44.05
2023-05-01T07:52:19.919Z,43.51
2023-05-01T07:57:20.030Z,44.01
2023-05-01T08:02:19.801Z,43.68
2023-05-01T08:07:19.825Z,45.16
2023-05-01T08:12:19.827Z,45.38
2023-05-01T08:17:22.676Z,44.05
2023-05-01T08:22:19.644Z,45.78
2023-05-01T08:27:20.069Z,43.82
2023-05-01T08:32:19.521Z,42.35
2023-05-01T08:37:19.390Z,42.92
2023-05-01T08:42:19.401Z,42.72
2023-05-01T08:47:19.327Z,41.85
2023-05-01T08:52:19.332Z,41.79
2023-05-01T08:57:19.172Z,42.49
2023-05-01T09:02:19.027Z,42.78
2023-05-01T09:07:19.003Z,45.57
2023-05-01T09:12:18.853Z,43.06
2023-05-01T09:17:22.061Z,43.62
2023-05-01T09:22:18.744Z,44.15
2023-05-01T09:27:18.750Z,44.10
2023-05-01T09:32:18.815Z,41.83
2023-05-01T09:37:18.739Z,42.27
2023-05-01T09:42:18.522Z,41.13
2023-05-01T09:47:18.459Z,42.44
2023-05-01T09:52:18.448Z,42.11
2023-05-01T09:57:18.307Z,37.44
2023-05-01T10:02:18.348Z,37.94
2023-05-01T10:07:18.257Z,36.08
2023-05-01T10:12:18.119Z,36.58
2023-05-01T10:17:28.637Z,34.38
2023-05-01T10:22:25.460Z,37.37
2023-05-01T10:27:17.987Z,38.90
2023-05-01T10:32:17.808Z,37.25
2023-05-01T10:37:17.877Z,35.25
2023-05-01T10:42:17.800Z,34.24
2023-05-01T10:47:17.768Z,33.98
2023-05-01T10:52:17.563Z,35.14
2023-05-01T10:57:17.566Z,35.41
2023-05-01T11:02:17.554Z,32.11
2023-05-01T11:07:17.738Z,31.98
2023-05-01T11:12:17.302Z,32.61
2023-05-01T11:17:20.428Z,35.03
2023-05-01T11:22:17.172Z,36.75
2023-05-01T11:27:17.275Z,33.36
2023-05-01T11:32:17.230Z,35.60
2023-05-01T11:37:17.067Z,34.53
2023-05-01T11:42:16.948Z,32.85
2023-05-01T11:47:16.897Z,35.43
2023-05-01T11:52:17.047Z,36.03
2023-05-01T11:57:16.945Z,34.94
2023-05-01T12:02:16.771Z,36.03
2023-05-01T12:07:16.610Z,32.67
2023-05-01T12:12:16.499Z,33.61
2023-05-01T12:17:19.871Z,31.69
2023-05-01T12:22:16.475Z,33.88
2023-05-01T12:27:16.387Z,33.59
2023-05-01T12:32:16.367Z,33.06
2023-05-01T12:37:16.484Z,33.03
2023-05-01T12:42:16.154Z,33.62
2023-05-01T12:47:16.374Z,34.14
2023-05-01T12:52:16.110Z,35.26
2023-05-01T12:57:16.018Z,34.16
2023-05-01T13:02:16.264Z,35.21
2023-05-01T13:07:15.963Z,34.05
2023-05-01T13:12:15.755Z,35.44
2023-05-01T13:17:18.729Z,35.83
2023-05-01T13:22:15.716Z,34.73
2023-05-01T13:27:15.690Z,33.45
2023-05-01T13:32:15.593Z,33.51
2023-05-01T13:37:15.676Z,36.50
2023-05-01T13:42:15.298Z,36.07
2023-05-01T13:47:15.283Z,38.22
2023-05-01T13:52:15.556Z,37.38
2023-05-01T13:57:15.176Z,38.34
2023-05-01T14:02:15.306Z,38.53
2023-05-01T14:07:15.194Z,37.92
2023-05-01T14:12:14.932Z,37.92
2023-05-01T14:17:18.125Z,38.22
2023-05-01T14:22:14.786Z,39.08
2023-05-01T14:27:14.780Z,39.14
2023-05-01T14:32:14.780Z,38.44
2023-05-01T14:37:15.089Z,38.34
2023-05-01T14:42:14.585Z,39.60
2023-05-01T14:47:14.518Z,40.41
2023-05-01T14:52:14.442Z,40.99
2023-05-01T14:57:14.380Z,41.17
2023-05-01T15:02:14.364Z,41.19
2023-05-01T15:07:14.305Z,39.95
2023-05-01T15:12:14.203Z,41.11
2023-05-01T15:17:17.262Z,40.99
2023-05-01T15:22:14.062Z,40.79
2023-05-01T15:27:14.021Z,41.09
2023-05-01T15:32:14.015Z,41.29
2023-05-01T15:37:13.852Z,40.75
2023-05-01T15:42:13.775Z,40.67
2023-05-01T15:47:13.842Z,40.35
2023-05-01T15:52:13.635Z,40.77
2023-05-01T15:57:13.701Z,41.19
2023-05-01T16:02:13.547Z,40.77
2023-05-01T16:07:13.730Z,41.99
2023-05-01T16:12:13.460Z,42.30
2023-05-01T16:17:16.447Z,41.65
2023-05-01T16:22:13.254Z,42.88
2023-05-01T16:27:13.412Z,42.83
2023-05-01T16:32:13.285Z,44.79
2023-05-01T16:37:13.312Z,45.94
2023-05-01T16:42:12.965Z,45.10
2023-05-01T16:47:12.939Z,46.34
2023-05-01T16:52:12.855Z,47.59
2023-05-01T16:57:13.652Z,50.02
2023-05-01T17:02:12.748Z,53.07
2023-05-01T17:07:12.681Z,54.21
2023-05-01T17:12:12.627Z,56.75
2023-05-01T17:17:15.662Z,56.57
2023-05-01T17:22:12.455Z,58.80
2023-05-01T17:27:12.420Z,60.26
2023-05-01T17:32:14.442Z,60.36
2023-05-01T17:37:13.456Z,60.26
2023-05-01T17:42:12.183Z,60.36
2023-05-01T17:47:12.274Z,60.09
2023-05-01T17:52:12.051Z,60.19
2023-05-01T17:57:12.194Z,60.32
2023-05-01T18:02:12.185Z,60.32
2023-05-01T18:07:11.995Z,60.93
2023-05-01T18:12:11.799Z,62.07
2023-05-01T18:17:15.037Z,62.47
2023-05-01T18:22:11.648Z,63.51
2023-05-01T18:27:11.649Z,65.16
2023-05-01T18:32:13.529Z,67.72
2023-05-01T18:37:11.499Z,68.77
2023-05-01T18:42:11.448Z,69.14
2023-05-01T18:47:11.400Z,69.78
2023-05-01T18:52:11.233Z,69.78
2023-05-01T18:57:11.338Z,70.62
2023-05-01T19:02:11.341Z,70.39
2023-05-01T19:07:11.084Z,71.57
2023-05-01T19:12:11.029Z,70.83
2023-05-01T19:17:14.117Z,70.59
2023-05-01T19:22:11.011Z,72.61
2023-05-01T19:27:10.834Z,72.68
2023-05-01T19:32:10.756Z,72.38
2023-05-01T19:37:10.698Z,72.78
2023-05-01T19:42:10.603Z,72.08
2023-05-01T19:47:10.543Z,72.61
2023-05-01T19:52:10.449Z,73.97
2023-05-01T19:57:10.627Z,74.71
2023-05-01T20:02:10.361Z,75.05
2023-05-01T20:07:10.353Z,74.21
2023-05-01T20:12:10.208Z,73.97
2023-05-01T20:17:13.203Z,74.95
2023-05-01T20:22:10.132Z,76.01
2023-05-01T20:27:10.185Z,75.32
2023-05-01T20:32:09.969Z,74.31
2023-05-01T20:37:10.105Z,75.22
2023-05-01T20:42:09.778Z,74.41
2023-05-01T20:47:09.739Z,75.16
2023-05-01T20:52:09.664Z,74.82
2023-05-01T20:57:09.632Z,75.36
2023-05-01T21:02:09.959Z,75.56
2023-05-01T21:07:09.520Z,76.86
2023-05-01T21:12:09.425Z,76.31
2023-05-01T21:17:12.372Z,76.61
2023-05-01T21:22:09.283Z,77.47
2023-05-01T21:27:09.336Z,77.26
2023-05-01T21:32:09.256Z,77.36
2023-05-01T21:37:09.103Z,77.91
2023-05-01T21:42:09.042Z,77.16
2023-05-01T21:47:08.977Z,76.75
2023-05-01T21:52:08.824Z,77.47
2023-05-01T21:57:08.916Z,76.75
2023-05-01T22:02:08.689Z,77.09
2023-05-01T22:07:08.690Z,76.31
2023-05-01T22:12:08.582Z,75.53
2023-05-01T22:17:11.584Z,75.77
2023-05-01T22:22:08.547Z,77.87
2023-05-01T22:27:08.481Z,77.47
2023-05-01T22:32:08.624Z,77.98
2023-05-01T22:37:08.246Z,78.12
2023-05-01T22:42:08.243Z,78.87
2023-05-01T22:47:08.680Z,78.77
2023-05-01T22:52:08.044Z,79.07
2023-05-01T22:57:08.076Z,78.02
2023-05-01T23:02:08.120Z,77.51
2023-05-01T23:07:08.061Z,77.40
2023-05-01T23:12:08.758Z,77.00
2023-05-01T23:17:10.917Z,77.71
2023-05-01T23:22:07.665Z,78.05
2023-05-01T23:27:07.636Z,77.64
2023-05-01T23:32:07.641Z,77.51
2023-05-01T23:37:07.496Z,77.14
2023-05-01T23:42:07.399Z,78.88
2023-05-01T23:47:07.578Z,78.88
2023-05-01T23:52:07.432Z,80.44
2023-05-01T23:57:07.383Z,80.42
